Time;durP1;ratioP1;P1;durP2;ratioP2;P2;SDS_P1;SDS_P2;PMS_P1;PMS_P2;Temp;Humidity;BMP_temperature;BMP_pressure;BME280_temperature;BME280_humidity;BME280_pressure;Samples;Min_cycle;Max_cycle;Signal;HPM_P1;HPM_P2
2021/04/06 00:02:20;;;;;;;7.15;4.85;;;12.60;73.40;;;;;;5071363;28;20028;-78
2021/04/06 00:04:49;;;;;;;6.57;4.95;;;12.60;74.40;;;;;;5074992;28;20028;-78
2021/04/06 00:07:17;;;;;;;6.82;5.03;;;12.60;74.30;;;;;;5074978;28;20044;-78
2021/04/06 00:09:49;;;;;;;5.90;5.03;;;12.60;74.80;;;;;;5074874;28;20125;-78
2021/04/06 00:12:16;;;;;;;;;;;12.60;74.40;;;;;;5073852;28;20032;-78
2021/04/06 00:14:44;;;;;;;6.68;4.57;;;12.60;74.50;;;;;;5073402;28;19943;-78
2021/04/06 00:17:12;;;;;;;6.57;5.32;;;12.50;74.30;;;;;;5074968;28;20017;-78
2021/04/06 00:19:41;;;;;;;8.30;5.38;;;12.50;74.40;;;;;;5074791;28;20028;-78
2021/04/06 00:22:08;;;;;;;8.13;4.40;;;12.50;74.30;;;;;;5074590;28;20035;-78
2021/04/06 00:24:37;;;;;;;11.60;5.28;;;12.50;74.90;;;;;;5074454;28;20079;-78
2021/04/06 00:27:14;;;;;;;5.75;4.90;;;12.50;74.30;;;;;;5074669;28;20111;-77
2021/04/06 00:29:44;;;;;;;9.25;4.85;;;12.40;74.50;;;;;;5074461;28;20023;-78
2021/04/06 00:32:12;;;;;;;5.93;5.32;;;12.40;74.40;;;;;;5073030;28;20170;-78
2021/04/06 00:34:40;;;;;;;9.15;5.45;;;12.40;75.80;;;;;;5073068;28;20438;-78
2021/04/06 00:37:16;;;;;;;5.15;4.05;;;12.40;76.10;;;;;;5074557;28;20421;-78
2021/04/06 00:39:43;;;;;;;5.70;4.60;;;12.30;74.80;;;;;;5072994;28;20218;-78
2021/04/06 00:42:17;;;;;;;4.78;4.20;;;12.40;74.20;;;;;;5073058;28;20356;-78
2021/04/06 00:44:54;;;;;;;11.77;4.78;;;12.30;74.00;;;;;;5072995;28;20031;-78
2021/04/06 00:47:30;;;;;;;5.85;4.47;;;12.30;74.00;;;;;;5074408;28;20035;-78
2021/04/06 00:50:02;;;;;;;7.53;4.05;;;12.40;74.60;;;;;;5074305;28;20489;-78
2021/04/06 00:52:28;;;;;;;6.20;4.50;;;12.40;75.10;;;;;;5073969;28;20442;-78
2021/04/06 00:54:57;;;;;;;5.30;4.80;;;12.30;75.00;;;;;;5074256;28;20048;-77
2021/04/06 00:57:29;;;;;;;4.85;4.30;;;12.30;75.20;;;;;;5073981;28;20024;-77
2021/04/06 01:00:17;;;;;;;7.45;4.60;;;12.30;76.30;;;;;;5074034;28;20017;-77
2021/04/06 01:03:05;;;;;;;4.90;4.47;;;12.40;75.70;;;;;;5073868;28;20486;-77
2021/04/06 01:05:52;;;;;;;4.63;4.22;;;12.30;74.60;;;;;;5074045;28;20099;-77
2021/04/06 01:08:17;;;;;;;5.00;4.10;;;12.30;74.30;;;;;;5072080;28;20490;-78
2021/04/06 01:10:46;;;;;;;6.88;4.82;;;12.30;74.60;;;;;;5072671;28;20078;-78
2021/04/06 01:13:12;;;;;;;6.57;5.43;;;12.30;74.20;;;;;;5072904;28;20025;-78
2021/04/06 01:15:40;;;;;;;6.00;4.25;;;12.30;74.70;;;;;;5073756;28;20074;-78
2021/04/06 01:18:05;;;;;;;8.05;4.65;;;12.30;75.00;;;;;;5073794;28;20497;-78
2021/04/06 01:20:31;;;;;;;6.78;4.28;;;12.30;76.10;;;;;;5073751;28;20032;-78
2021/04/06 01:22:58;;;;;;;7.40;4.40;;;12.30;75.70;;;;;;5073399;28;20052;-78
2021/04/06 01:25:33;;;;;;;5.15;4.53;;;12.30;75.60;;;;;;5073787;28;20112;-78
2021/04/06 01:28:10;;;;;;;10.85;4.70;;;12.30;75.50;;;;;;5072161;28;20039;-78
2021/04/06 01:30:47;;;;;;;4.70;4.18;;;12.30;75.50;;;;;;5072002;28;20394;-78
2021/04/06 01:33:25;;;;;;;6.85;4.68;;;12.20;75.50;;;;;;5072171;28;20664;-78
2021/04/06 01:35:53;;;;;;;4.68;4.28;;;12.20;75.90;;;;;;5073177;28;20020;-78
2021/04/06 01:38:22;;;;;;;5.72;4.65;;;12.20;76.50;;;;;;5073197;28;20440;-78
2021/04/06 01:40:48;;;;;;;4.30;3.90;;;12.20;76.70;;;;;;5073114;28;20027;-78
2021/04/06 01:43:16;;;;;;;9.15;4.10;;;12.20;77.70;;;;;;5073370;28;20394;-78
2021/04/06 01:45:46;;;;;;;4.93;4.50;;;12.10;77.60;;;;;;5073037;28;20112;-78
2021/04/06 01:48:14;;;;;;;6.55;4.80;;;12.10;77.60;;;;;;5089876;28;20060;-78
2021/04/06 01:50:42;;;;;;;7.25;4.70;;;12.10;77.70;;;;;;5093111;28;20103;-78
2021/04/06 01:53:08;;;;;;;5.43;4.78;;;12.10;77.60;;;;;;5091953;28;20057;-78
2021/04/06 01:55:36;;;;;;;8.95;4.63;;;12.00;77.20;;;;;;5093086;28;20040;-78
2021/04/06 01:58:03;;;;;;;10.88;4.72;;;11.90;77.30;;;;;;5087017;28;20099;-78
2021/04/06 02:03:02;;;;;;;12.60;5.70;;;11.80;78.50;;;;;;5072903;28;20069;-78
2021/04/06 02:05:29;;;;;;;11.32;6.38;;;11.70;78.90;;;;;;5072866;28;20608;-78
2021/04/06 02:08:06;;;;;;;9.55;5.82;;;11.70;79.00;;;;;;5072882;28;20402;-78
2021/04/06 02:10:33;;;;;;;9.10;5.60;;;11.80;79.30;;;;;;5072532;28;20391;-78
2021/04/06 02:13:11;;;;;;;8.88;6.30;;;11.80;79.40;;;;;;5072662;28;20029;-78
2021/04/06 02:15:39;;;;;;;6.85;5.50;;;11.80;79.00;;;;;;5071042;28;20410;-78
2021/04/06 02:18:05;;;;;;;9.38;5.80;;;11.80;79.20;;;;;;5071130;28;20028;-78
2021/04/06 02:20:31;;;;;;;8.32;5.22;;;11.90;79.10;;;;;;5072448;28;20039;-78
2021/04/06 02:23:01;;;;;;;6.55;4.90;;;11.90;78.80;;;;;;5072213;28;20044;-78
2021/04/06 02:25:28;;;;;;;8.45;5.68;;;11.90;79.10;;;;;;5070122;28;20107;-79
2021/04/06 02:27:55;;;;;;;8.25;5.90;;;11.90;78.70;;;;;;5072221;28;20066;-78
2021/04/06 02:30:30;;;;;;;9.45;5.80;;;11.90;78.70;;;;;;5072129;28;20067;-78
2021/04/06 02:33:02;;;;;;;6.45;4.85;;;11.90;79.30;;;;;;5072069;28;20486;-78
2021/04/06 02:35:28;;;;;;;12.60;6.03;;;11.90;79.20;;;;;;5072024;28;20048;-78
2021/04/06 02:37:54;;;;;;;8.15;5.55;;;11.90;79.40;;;;;;5070887;28;20055;-79
2021/04/06 02:40:22;;;;;;;5.72;5.10;;;11.90;79.70;;;;;;5071998;28;20441;-78
2021/04/06 02:42:49;;;;;;;5.90;5.30;;;11.80;80.70;;;;;;5072001;28;20079;-78
2021/04/06 02:45:16;;;;;;;6.00;5.40;;;11.70;82.20;;;;;;5072078;28;20032;-78
2021/04/06 02:48:07;;;;;;;7.22;5.35;;;11.70;81.50;;;;;;5072116;28;20039;-78
2021/04/06 02:50:35;;;;;;;10.82;5.57;;;11.60;81.20;;;;;;5071769;28;20425;-78
2021/04/06 02:53:05;;;;;;;5.50;5.03;;;11.70;81.40;;;;;;5071893;28;20086;-78
2021/04/06 02:55:33;;;;;;;6.57;4.85;;;11.70;81.20;;;;;;5072052;28;20024;-78
2021/04/06 02:57:59;;;;;;;6.63;5.22;;;11.70;81.00;;;;;;5070677;28;20020;-78
2021/04/06 03:00:27;;;;;;;5.32;4.82;;;11.70;80.80;;;;;;5071554;28;20429;-78
2021/04/06 03:02:54;;;;;;;8.23;4.97;;;11.70;81.20;;;;;;5071685;28;20066;-78
2021/04/06 03:05:38;;;;;;;6.68;5.70;;;11.70;81.20;;;;;;5071886;28;20032;-78
2021/04/06 03:08:05;;;;;;;5.65;4.78;;;11.70;81.10;;;;;;5070441;28;20028;-78
2021/04/06 03:10:32;;;;;;;5.43;4.90;;;11.70;81.00;;;;;;5070243;28;20040;-78
2021/04/06 03:13:11;;;;;;;7.25;5.53;;;11.70;81.00;;;;;;5071520;28;20035;-78
2021/04/06 03:15:42;;;;;;;8.65;5.38;;;11.70;80.80;;;;;;5071777;28;20028;-78
2021/04/06 03:18:12;;;;;;;8.77;5.53;;;11.70;80.70;;;;;;5071668;28;20020;-78
2021/04/06 03:20:39;;;;;;;7.78;5.45;;;11.70;80.70;;;;;;5070226;28;20115;-78
2021/04/06 03:23:07;;;;;;;6.03;4.90;;;11.70;80.70;;;;;;5071082;28;20053;-78
2021/04/06 03:25:35;;;;;;;8.18;4.88;;;11.70;80.80;;;;;;5071479;28;20032;-78
2021/04/06 03:28:13;;;;;;;7.10;4.72;;;11.70;81.60;;;;;;5071348;28;20109;-78
2021/04/06 03:30:39;;;;;;;5.82;5.30;;;11.60;81.30;;;;;;5071092;28;20036;-78
2021/04/06 03:33:06;;;;;;;9.02;5.18;;;11.60;81.10;;;;;;5071353;28;20029;-78
2021/04/06 03:35:34;;;;;;;6.50;4.88;;;11.70;81.10;;;;;;5070292;28;20021;-78
2021/04/06 03:38:03;;;;;;;7.63;5.95;;;11.60;80.90;;;;;;5075761;28;20104;-78
2021/04/06 03:40:33;;;;;;;8.15;5.07;;;11.70;81.10;;;;;;5077793;28;20024;-78
2021/04/06 03:43:15;;;;;;;8.18;5.10;;;11.60;81.00;;;;;;5077936;28;20025;-78
2021/04/06 03:45:58;;;;;;;7.57;4.75;;;11.60;81.10;;;;;;5077849;28;20031;-78
2021/04/06 03:48:26;;;;;;;12.63;5.80;;;11.70;80.90;;;;;;5077985;28;20138;-78
2021/04/06 03:50:52;;;;;;;8.13;5.50;;;11.60;80.90;;;;;;5076668;28;20033;-78
2021/04/06 03:53:23;;;;;;;12.75;5.57;;;11.60;81.00;;;;;;5077670;28;20032;-78
2021/04/06 03:56:10;;;;;;;9.63;5.88;;;11.60;81.10;;;;;;5077740;28;20120;-78
2021/04/06 03:58:53;;;;;;;7.90;5.50;;;11.60;81.20;;;;;;5084017;28;20020;-78
2021/04/06 04:01:19;;;;;;;6.07;5.55;;;11.60;81.20;;;;;;5077778;28;20020;-78
2021/04/06 04:03:45;;;;;;;10.80;5.80;;;11.60;81.50;;;;;;5076861;28;20364;-78
2021/04/06 04:06:21;;;;;;;10.00;5.95;;;11.60;81.20;;;;;;5076328;28;20048;-78
2021/04/06 04:08:46;;;;;;;12.63;6.30;;;11.50;81.80;;;;;;5077826;28;20438;-78
2021/04/06 04:11:12;;;;;;;11.55;5.53;;;11.50;82.00;;;;;;5077701;28;20056;-78
2021/04/06 04:13:38;;;;;;;6.82;5.32;;;11.40;82.30;;;;;;5077483;28;20378;-78
2021/04/06 04:16:04;;;;;;;7.30;5.88;;;11.40;82.50;;;;;;5076566;28;20029;-78
2021/04/06 04:18:29;;;;;;;7.70;5.13;;;11.40;82.60;;;;;;5077542;28;20024;-78
2021/04/06 04:20:56;;;;;;;7.95;5.50;;;11.30;82.60;;;;;;5077492;28;20107;-78
2021/04/06 04:23:21;;;;;;;9.35;6.53;;;11.40;82.50;;;;;;5077654;28;20090;-78
2021/04/06 04:25:47;;;;;;;7.88;5.30;;;11.40;82.40;;;;;;5077518;28;20029;-78
2021/04/06 04:28:13;;;;;;;11.48;6.72;;;11.50;82.00;;;;;;5077466;28;20029;-78
2021/04/06 04:30:40;;;;;;;7.15;5.70;;;11.50;82.00;;;;;;5076307;28;20025;-78
2021/04/06 04:33:08;;;;;;;5.75;5.25;;;11.50;82.20;;;;;;5076138;28;20036;-78
2021/04/06 04:35:34;;;;;;;10.30;6.28;;;11.50;82.50;;;;;;5076131;28;20020;-78
2021/04/06 04:38:00;;;;;;;8.02;5.60;;;11.50;82.50;;;;;;5077608;28;20021;-78
2021/04/06 04:40:26;;;;;;;10.07;5.93;;;11.50;82.30;;;;;;5076218;28;20444;-78
2021/04/06 04:42:53;;;;;;;6.75;6.13;;;11.50;82.50;;;;;;5077451;28;20366;-78
2021/04/06 04:45:20;;;;;;;10.85;5.50;;;11.50;82.40;;;;;;5076170;28;20059;-78
2021/04/06 04:47:46;;;;;;;13.75;5.78;;;11.40;82.60;;;;;;5076626;28;20106;-79
2021/04/06 04:50:12;;;;;;;7.55;5.65;;;11.40;82.70;;;;;;5073517;28;20462;-78
2021/04/06 04:52:38;;;;;;;8.18;6.28;;;11.40;82.70;;;;;;5074072;28;20081;-78
2021/04/06 04:55:05;;;;;;;8.60;5.78;;;11.40;82.30;;;;;;5074286;28;20021;-78
2021/04/06 04:57:31;;;;;;;8.90;6.35;;;11.50;82.80;;;;;;5073928;28;20020;-78
2021/04/06 04:59:57;;;;;;;7.70;5.72;;;11.40;81.60;;;;;;5073966;28;20029;-78
2021/04/06 05:02:23;;;;;;;9.00;6.50;;;11.50;82.50;;;;;;5074166;28;20031;-78
2021/04/06 05:04:49;;;;;;;13.88;7.10;;;11.50;82.30;;;;;;5074043;28;20100;-78
2021/04/06 05:07:14;;;;;;;10.30;6.15;;;11.30;83.00;;;;;;5073750;28;20112;-78
2021/04/06 05:09:41;;;;;;;17.98;6.20;;;11.30;83.20;;;;;;5073888;28;20108;-79
2021/04/06 05:12:07;;;;;;;14.20;6.95;;;11.40;83.00;;;;;;5073793;28;20013;-78
2021/04/06 05:14:33;;;;;;;12.55;6.45;;;11.30;83.40;;;;;;5072494;28;20386;-78
2021/04/06 05:16:58;;;;;;;8.50;6.25;;;11.40;83.20;;;;;;5073878;28;20029;-78
2021/04/06 05:19:24;;;;;;;8.48;6.63;;;11.30;82.80;;;;;;5072371;28;20090;-78
2021/04/06 05:21:49;;;;;;;12.20;6.53;;;11.40;83.00;;;;;;5073519;28;20027;-79
2021/04/06 05:24:15;;;;;;;14.10;7.15;;;11.40;83.50;;;;;;5073618;28;20059;-78
2021/04/06 05:26:41;;;;;;;12.30;6.68;;;11.40;83.50;;;;;;5073568;28;20033;-78
2021/04/06 05:29:06;;;;;;;9.50;6.40;;;11.40;83.20;;;;;;5073513;28;20025;-78
2021/04/06 05:31:32;;;;;;;11.68;6.88;;;11.40;83.20;;;;;;5072120;28;20070;-78
2021/04/06 05:33:58;;;;;;;12.05;6.22;;;11.40;83.10;;;;;;5073329;28;20020;-78
2021/04/06 05:36:24;;;;;;;14.63;6.60;;;11.40;83.60;;;;;;5072111;28;20020;-78
2021/04/06 05:38:49;;;;;;;11.30;6.68;;;11.40;83.70;;;;;;5073475;28;20028;-78
2021/04/06 05:41:17;;;;;;;11.20;7.32;;;11.40;83.40;;;;;;5073071;28;20029;-78
2021/04/06 05:43:44;;;;;;;14.43;7.75;;;11.30;82.70;;;;;;5073261;28;20439;-78
2021/04/06 05:46:13;;;;;;;11.63;6.95;;;11.30;82.50;;;;;;5073205;28;20021;-78
2021/04/06 05:48:40;;;;;;;12.68;6.90;;;11.40;83.50;;;;;;5073262;28;20539;-78
2021/04/06 05:51:06;;;;;;;18.20;6.47;;;11.40;83.40;;;;;;5072903;28;20032;-78
2021/04/06 05:53:32;;;;;;;11.45;8.23;;;11.40;84.60;;;;;;5075397;28;20020;-78
2021/04/06 05:55:59;;;;;;;10.75;6.88;;;11.50;84.10;;;;;;5073153;28;20111;-78
2021/04/06 05:58:25;;;;;;;10.95;6.90;;;11.50;83.30;;;;;;5072851;28;20024;-78
2021/04/06 06:00:51;;;;;;;13.43;7.35;;;11.50;84.20;;;;;;5072607;28;20387;-78
2021/04/06 06:03:17;;;;;;;7.97;7.05;;;11.50;84.50;;;;;;5072964;28;20035;-78
2021/04/06 06:05:42;;;;;;;13.07;8.40;;;11.50;84.30;;;;;;5072759;28;20024;-78
2021/04/06 06:08:13;;;;;;;10.95;7.18;;;11.50;84.00;;;;;;5072435;28;20020;-78
2021/04/06 06:10:39;;;;;;;10.57;6.88;;;11.50;84.00;;;;;;5071671;28;20028;-78
2021/04/06 06:13:35;;;;;;;11.75;6.82;;;11.40;84.10;;;;;;5073105;28;20025;-78
2021/04/06 06:16:16;;;;;;;5.88;2.13;;;11.40;84.40;;;;;;5063930;28;20036;-78
2021/04/06 06:19:02;;;;;;;1.75;1.10;;;11.40;71.00;;;;;;5071761;28;20024;-75
2021/04/06 06:21:48;;;;;;;1.00;1.00;;;11.50;58.90;;;;;;5070887;28;20031;-76
2021/04/06 06:24:28;;;;;;;2.38;0.70;;;11.50;55.00;;;;;;5071993;28;20048;-75
2021/04/06 06:26:58;;;;;;;3.97;2.40;;;11.50;55.90;;;;;;5072295;28;20035;-76
2021/04/06 06:29:27;;;;;;;4.15;3.13;;;11.60;59.00;;;;;;5072343;28;20032;-76
2021/04/06 06:31:57;;;;;;;13.27;6.75;;;11.60;65.50;;;;;;5072212;28;20071;-76
2021/04/06 06:34:37;;;;;;;12.65;6.50;;;11.60;76.70;;;;;;5072316;28;20027;-75
2021/04/06 06:37:05;;;;;;;8.23;6.15;;;11.60;78.60;;;;;;5071004;28;20044;-76
2021/04/06 06:39:32;;;;;;;3.90;3.33;;;11.60;79.10;;;;;;5070686;28;20029;-76
2021/04/06 06:42:10;;;;;;;3.85;2.03;;;11.70;71.20;;;;;;5072263;28;20434;-75
2021/04/06 06:44:38;;;;;;;1.05;1.05;;;11.80;60.00;;;;;;5070758;28;20029;-75
2021/04/06 06:47:06;;;;;;;0.80;0.63;;;11.80;53.40;;;;;;5073058;28;20463;-75
2021/04/06 06:49:37;;;;;;;0.85;0.60;;;11.80;48.40;;;;;;5072952;28;20024;-76
2021/04/06 06:52:05;;;;;;;1.30;0.63;;;11.80;45.50;;;;;;5072117;28;20017;-74
2021/04/06 06:54:40;;;;;;;0.70;0.70;;;11.80;45.40;;;;;;5065236;28;20538;-75
2021/04/06 06:57:12;;;;;;;2.63;0.80;;;11.80;45.80;;;;;;5064993;28;20067;-75
2021/04/06 06:59:39;;;;;;;4.55;0.40;;;11.90;46.60;;;;;;5066886;28;20017;-75
2021/04/06 07:02:20;;;;;;;0.50;0.50;;;11.90;45.90;;;;;;5069374;28;20028;-75
2021/04/06 07:04:46;;;;;;;1.05;0.50;;;12.00;46.30;;;;;;5072275;28;20043;-76
2021/04/06 07:07:12;;;;;;;0.68;0.60;;;12.00;44.60;;;;;;5068303;28;20051;-76
2021/04/06 07:09:40;;;;;;;0.50;0.50;;;12.10;45.90;;;;;;5068911;28;20052;-78
2021/04/06 07:12:07;;;;;;;0.32;0.32;;;12.20;43.70;;;;;;5065915;28;20028;-75
2021/04/06 07:14:34;;;;;;;5.93;0.80;;;12.20;42.00;;;;;;5067121;28;20572;-76
2021/04/06 07:17:05;;;;;;;1.65;0.50;;;12.20;41.50;;;;;;5069226;28;20020;-75
2021/04/06 07:19:38;;;;;;;0.82;0.50;;;12.20;38.80;;;;;;5068895;28;20033;-75
2021/04/06 07:22:05;;;;;;;3.08;0.68;;;12.10;37.60;;;;;;5070119;28;20055;-75
2021/04/06 07:24:36;;;;;;;0.57;0.57;;;12.00;37.90;;;;;;5073837;28;20098;-75
2021/04/06 07:27:07;;;;;;;3.72;0.60;;;11.90;36.90;;;;;;5071761;28;20044;-75
2021/04/06 07:29:33;;;;;;;2.53;0.70;;;11.80;35.90;;;;;;5066481;28;20642;-75
2021/04/06 07:32:01;;;;;;;2.38;0.65;;;11.70;36.10;;;;;;5066094;28;20021;-75
2021/04/06 07:34:28;;;;;;;1.25;0.50;;;11.70;36.50;;;;;;5066642;28;20028;-75
2021/04/06 07:36:55;;;;;;;1.27;0.50;;;11.60;36.60;;;;;;5067891;28;20036;-75
2021/04/06 07:39:24;;;;;;;0.38;0.38;;;11.60;36.60;;;;;;5067260;28;20021;-75
2021/04/06 07:41:50;;;;;;;4.22;0.70;;;11.60;35.60;;;;;;5068367;28;20051;-75
2021/04/06 07:44:17;;;;;;;0.32;0.32;;;11.50;35.20;;;;;;5068759;28;20024;-75
2021/04/06 07:46:45;;;;;;;0.63;0.63;;;11.50;35.00;;;;;;5067306;28;20459;-75
2021/04/06 07:49:17;;;;;;;0.98;0.60;;;11.40;34.30;;;;;;5068415;28;20909;-75
2021/04/06 07:51:45;;;;;;;0.75;0.43;;;11.40;34.30;;;;;;5075276;28;20017;-74
2021/04/06 07:54:21;;;;;;;0.82;0.30;;;11.40;34.10;;;;;;5066918;28;20108;-75
2021/04/06 07:56:51;;;;;;;1.25;0.73;;;11.40;34.00;;;;;;5068159;28;20047;-75
2021/04/06 07:59:20;;;;;;;0.82;0.68;;;11.40;33.60;;;;;;5066349;28;20082;-75
2021/04/06 08:02:06;;;;;;;2.42;0.70;;;11.30;32.90;;;;;;5067281;28;20059;-74
2021/04/06 08:04:38;;;;;;;3.80;0.50;;;11.30;32.30;;;;;;5069302;28;20020;-75
2021/04/06 08:07:31;;;;;;;2.03;0.60;;;11.20;33.10;;;;;;5069856;28;20120;-75
2021/04/06 08:10:26;;;;;;;1.38;0.47;;;11.30;33.10;;;;;;5070224;28;20483;-75
2021/04/06 08:12:53;;;;;;;0.57;0.57;;;11.20;31.90;;;;;;5063839;28;20039;-75
2021/04/06 08:15:19;;;;;;;0.40;0.40;;;11.20;31.90;;;;;;5067494;28;20039;-75
2021/04/06 08:17:53;;;;;;;2.83;0.75;;;11.20;32.80;;;;;;5067670;28;20098;-75
2021/04/06 08:20:25;;;;;;;0.98;0.50;;;11.30;32.40;;;;;;5068176;28;20020;-75
2021/04/06 08:23:06;;;;;;;0.40;0.40;;;11.30;31.50;;;;;;5068919;28;20491;-75
2021/04/06 08:25:31;;;;;;;3.70;0.63;;;11.30;30.90;;;;;;5070621;28;20036;-76
2021/04/06 08:28:20;;;;;;;0.80;0.80;;;11.30;30.10;;;;;;5071469;28;20535;-75
2021/04/06 08:30:46;;;;;;;0.90;0.70;;;11.20;29.10;;;;;;5065290;28;20040;-75
2021/04/06 08:33:25;;;;;;;2.97;0.70;;;11.20;29.00;;;;;;5069604;28;20035;-76
2021/04/06 08:35:52;;;;;;;2.80;0.68;;;11.20;29.10;;;;;;5071177;28;20024;-76
2021/04/06 08:38:31;;;;;;;4.85;0.52;;;11.20;28.70;;;;;;5073420;28;20362;-75
2021/04/06 08:41:06;;;;;;;7.75;1.10;;;11.30;29.30;;;;;;5070322;28;20036;-76
2021/04/06 08:43:43;;;;;;;1.95;0.98;;;11.30;28.80;;;;;;5073456;28;20356;-75
2021/04/06 08:46:12;;;;;;;2.08;0.50;;;11.30;28.70;;;;;;5070689;28;20734;-76
2021/04/06 08:48:44;;;;;;;0.50;0.50;;;11.40;28.80;;;;;;5080150;28;20422;-75
2021/04/06 08:51:22;;;;;;;0.88;0.85;;;11.40;29.40;;;;;;5064691;28;20083;-75
2021/04/06 08:53:59;;;;;;;0.43;0.43;;;11.50;28.90;;;;;;5072313;28;20101;-75
2021/04/06 08:56:50;;;;;;;0.60;0.60;;;11.50;28.70;;;;;;5072350;28;20024;-75
2021/04/06 08:59:37;;;;;;;0.40;0.40;;;11.50;28.70;;;;;;5069684;28;20439;-75
2021/04/06 09:02:11;;;;;;;0.57;0.38;;;11.60;28.60;;;;;;5071197;28;20089;-75
2021/04/06 09:04:39;;;;;;;0.95;0.50;;;11.60;28.60;;;;;;5072855;28;20028;-75
2021/04/06 09:07:25;;;;;;;1.10;0.50;;;11.70;28.20;;;;;;5078148;28;20032;-75
2021/04/06 09:09:59;;;;;;;0.75;0.45;;;11.80;27.90;;;;;;5069940;28;20037;-75
2021/04/06 09:12:25;;;;;;;3.25;0.60;;;11.80;27.60;;;;;;5070150;28;20031;-75
2021/04/06 09:14:52;;;;;;;0.68;0.60;;;11.80;27.30;;;;;;5070525;28;20478;-75
2021/04/06 09:17:18;;;;;;;8.90;0.65;;;11.90;26.60;;;;;;5070701;28;20047;-75
2021/04/06 09:19:46;;;;;;;1.02;0.60;;;11.80;26.90;;;;;;5074158;28;20033;-75
2021/04/06 09:22:14;;;;;;;2.25;0.47;;;11.80;26.40;;;;;;5072273;28;20125;-75
2021/04/06 09:24:41;;;;;;;2.13;0.60;;;11.90;27.40;;;;;;5075176;28;20060;-75
2021/04/06 09:27:07;;;;;;;2.08;0.55;;;12.10;28.10;;;;;;5069810;28;20036;-75
2021/04/06 09:29:39;;;;;;;1.33;0.80;;;12.30;27.00;;;;;;5077645;28;20049;-75
2021/04/06 09:32:11;;;;;;;1.23;0.40;;;12.60;27.90;;;;;;5070139;28;20063;-75
2021/04/06 09:34:39;;;;;;;0.47;0.47;;;12.70;26.50;;;;;;5069664;28;20089;-75
2021/04/06 09:37:12;;;;;;;1.00;0.50;;;12.80;26.70;;;;;;5069335;28;20640;-75
2021/04/06 09:39:42;;;;;;;4.43;1.08;;;12.70;25.30;;;;;;5073212;28;20055;-75
2021/04/06 09:42:09;;;;;;;1.95;0.57;;;12.90;25.30;;;;;;5073183;28;20024;-76
2021/04/06 09:44:38;;;;;;;1.85;0.68;;;12.90;25.70;;;;;;5068909;28;20115;-75
2021/04/06 09:47:12;;;;;;;0.50;0.50;;;12.90;24.20;;;;;;5069459;28;20036;-75
2021/04/06 09:49:46;;;;;;;0.75;0.60;;;12.90;24.90;;;;;;5070048;28;20025;-75
2021/04/06 09:52:15;;;;;;;1.17;0.70;;;12.80;24.70;;;;;;5062600;28;20043;-76
2021/04/06 09:54:45;;;;;;;4.28;0.50;;;12.80;24.70;;;;;;5070542;28;20031;-75
2021/04/06 09:57:11;;;;;;;0.90;0.55;;;12.80;24.80;;;;;;5071356;28;20039;-75
2021/04/06 09:59:50;;;;;;;0.50;0.50;;;12.80;24.60;;;;;;5072384;28;20009;-75
2021/04/06 10:02:22;;;;;;;0.50;0.45;;;12.60;23.70;;;;;;5071008;28;20028;-75
2021/04/06 10:04:50;;;;;;;3.08;0.82;;;12.50;23.90;;;;;;5072069;28;20043;-75
2021/04/06 10:07:17;;;;;;;0.70;0.70;;;12.50;23.60;;;;;;5075888;28;20024;-75
2021/04/06 10:09:45;;;;;;;1.23;0.50;;;12.50;23.60;;;;;;5070162;28;20040;-75
2021/04/06 10:12:13;;;;;;;0.75;0.52;;;12.60;25.00;;;;;;5076981;28;20096;-75
2021/04/06 10:14:40;;;;;;;6.05;0.60;;;12.50;23.40;;;;;;5068492;28;20120;-75
2021/04/06 10:17:09;;;;;;;1.88;1.77;;;12.50;23.20;;;;;;5070826;28;20035;-75
2021/04/06 10:19:38;;;;;;;1.05;0.98;;;12.40;22.70;;;;;;5067893;28;20432;-75
2021/04/06 10:22:13;;;;;;;0.50;0.50;;;12.40;22.30;;;;;;5074283;28;20409;-75
2021/04/06 10:24:45;;;;;;;4.78;1.23;;;12.40;23.00;;;;;;5073832;28;20075;-75
2021/04/06 10:27:22;;;;;;;0.45;0.45;;;12.40;22.40;;;;;;5076018;28;20033;-76
2021/04/06 10:29:56;;;;;;;5.32;1.00;;;12.30;22.30;;;;;;5076980;28;20025;-76
2021/04/06 10:32:28;;;;;;;0.60;0.60;;;12.30;22.80;;;;;;5075858;28;20025;-76
2021/04/06 10:34:55;;;;;;;;;;;12.20;22.20;;;;;;5069033;28;20056;-75
2021/04/06 10:37:21;;;;;;;1.10;0.98;;;12.20;22.80;;;;;;5069583;28;19927;-76
2021/04/06 10:39:48;;;;;;;1.25;0.63;;;12.20;22.10;;;;;;5069954;28;20482;-75
2021/04/06 10:42:15;;;;;;;0.77;0.73;;;12.10;21.70;;;;;;5068975;28;20086;-75
2021/04/06 10:44:43;;;;;;;2.22;0.57;;;12.20;22.20;;;;;;5066512;28;20029;-76
2021/04/06 10:47:23;;;;;;;0.35;0.35;;;12.20;22.30;;;;;;5069023;28;20028;-76
2021/04/06 10:49:57;;;;;;;2.72;0.40;;;12.00;21.60;;;;;;5070709;28;20032;-75
2021/04/06 10:52:32;;;;;;;2.83;0.40;;;12.00;21.00;;;;;;5074422;28;20498;-75
2021/04/06 10:54:58;;;;;;;1.55;0.60;;;12.00;21.20;;;;;;5069468;28;20024;-75
2021/04/06 10:57:30;;;;;;;3.72;0.60;;;12.00;20.70;;;;;;5069285;28;20027;-75
2021/04/06 10:59:56;;;;;;;3.72;0.52;;;12.00;20.80;;;;;;5069033;28;20020;-76
2021/04/06 11:02:24;;;;;;;0.70;0.70;;;12.00;20.80;;;;;;5069397;28;20025;-75
2021/04/06 11:04:50;;;;;;;2.70;0.45;;;12.10;20.50;;;;;;5068879;28;20367;-76
2021/04/06 11:07:27;;;;;;;0.40;0.40;;;12.20;22.00;;;;;;5067778;28;20017;-75
2021/04/06 11:09:53;;;;;;;2.10;1.90;;;12.40;21.50;;;;;;5067516;28;20378;-76
2021/04/06 11:12:18;;;;;;;5.38;2.75;;;12.70;27.80;;;;;;5069265;28;20012;-75
2021/04/06 11:14:46;;;;;;;4.35;2.70;;;12.90;56.10;;;;;;5068505;28;20368;-75
2021/04/06 11:17:13;;;;;;;1.48;1.38;;;13.00;62.50;;;;;;5069847;28;20036;-75
2021/04/06 11:19:41;;;;;;;9.38;1.80;;;13.00;58.90;;;;;;5068775;28;20024;-76
2021/04/06 11:22:13;;;;;;;2.13;1.50;;;13.00;57.90;;;;;;5069821;28;20012;-76
2021/04/06 11:24:41;;;;;;;1.23;1.17;;;12.90;58.20;;;;;;5060080;28;20070;-75
2021/04/06 11:27:09;;;;;;;3.53;1.20;;;12.80;57.70;;;;;;5069186;28;20103;-75
2021/04/06 11:29:37;;;;;;;2.45;1.00;;;12.80;57.70;;;;;;5072900;28;20056;-75
2021/04/06 11:32:06;;;;;;;3.15;1.23;;;12.80;58.00;;;;;;5068822;28;20021;-76
2021/04/06 11:34:33;;;;;;;1.13;1.10;;;12.70;58.40;;;;;;5067787;28;20425;-75
2021/04/06 11:36:59;;;;;;;3.03;1.08;;;12.70;58.80;;;;;;5069194;28;20020;-76
2021/04/06 11:39:28;;;;;;;2.38;1.00;;;12.60;58.90;;;;;;5068718;28;20027;-75
2021/04/06 11:41:55;;;;;;;8.18;1.20;;;12.70;59.60;;;;;;5073846;28;20023;-75
2021/04/06 11:44:21;;;;;;;0.90;0.90;;;12.40;59.30;;;;;;5073363;28;20024;-75
2021/04/06 11:46:47;;;;;;;1.73;0.80;;;12.30;59.40;;;;;;5074009;28;20054;-75
2021/04/06 11:49:15;;;;;;;4.18;1.13;;;12.10;59.80;;;;;;5074751;28;20705;-75
2021/04/06 11:51:43;;;;;;;3.53;0.90;;;11.80;60.00;;;;;;5074756;28;20391;-75
2021/04/06 11:54:11;;;;;;;3.70;1.00;;;11.70;61.50;;;;;;5068356;28;20055;-75
2021/04/06 11:56:37;;;;;;;4.15;1.00;;;11.60;62.30;;;;;;5067791;28;20047;-76
2021/04/06 11:59:04;;;;;;;3.13;0.90;;;11.70;62.90;;;;;;5069208;28;20024;-75
2021/04/06 12:01:30;;;;;;;7.43;0.90;;;11.70;62.70;;;;;;5075026;28;20044;-75
2021/04/06 12:03:56;;;;;;;4.38;0.90;;;11.70;62.70;;;;;;5074865;28;20166;-75
2021/04/06 12:06:23;;;;;;;1.92;0.75;;;11.80;62.60;;;;;;5071329;28;20108;-76
2021/04/06 12:08:49;;;;;;;0.95;0.82;;;12.20;62.20;;;;;;5072596;28;20077;-76
2021/04/06 12:11:14;;;;;;;2.83;0.70;;;12.60;61.50;;;;;;5079152;28;20032;-75
2021/04/06 12:13:40;;;;;;;1.50;0.63;;;12.90;60.70;;;;;;5079611;28;20035;-76
2021/04/06 12:16:06;;;;;;;1.27;0.73;;;12.80;59.20;;;;;;5072974;28;20031;-76
2021/04/06 12:18:32;;;;;;;1.05;0.70;;;12.80;58.90;;;;;;5072473;28;20425;-76
2021/04/06 12:20:57;;;;;;;1.77;0.80;;;12.60;58.70;;;;;;5075051;28;20029;-76
2021/04/06 12:23:23;;;;;;;1.83;0.68;;;12.50;58.60;;;;;;5073786;28;20102;-76
2021/04/06 12:25:49;;;;;;;5.65;1.25;;;12.40;59.10;;;;;;5075801;28;20036;-76
2021/04/06 12:28:15;;;;;;;2.15;0.80;;;12.20;58.80;;;;;;5071293;28;20016;-75
2021/04/06 12:30:41;;;;;;;0.82;0.82;;;12.50;59.70;;;;;;5078215;28;20028;-76
2021/04/06 12:33:07;;;;;;;2.00;1.00;;;12.50;59.30;;;;;;5079659;28;20115;-75
2021/04/06 12:35:32;;;;;;;0.80;0.80;;;12.20;59.30;;;;;;5072401;28;20513;-75
2021/04/06 12:37:58;;;;;;;1.13;0.68;;;12.50;60.20;;;;;;5071827;28;20031;-75
2021/04/06 12:40:24;;;;;;;4.97;0.88;;;12.50;58.90;;;;;;5072438;28;20052;-75
2021/04/06 12:42:50;;;;;;;3.03;0.85;;;13.00;60.10;;;;;;5071567;28;20119;-75
2021/04/06 12:45:17;;;;;;;2.17;0.88;;;12.90;58.30;;;;;;5074814;28;20107;-75
2021/04/06 12:47:44;;;;;;;1.13;1.02;;;13.10;58.40;;;;;;5076616;28;20025;-76
2021/04/06 12:50:10;;;;;;;1.00;0.80;;;12.80;58.00;;;;;;5071307;28;20028;-75
2021/04/06 12:52:36;;;;;;;1.30;0.70;;;12.60;58.70;;;;;;5078573;28;20036;-75
2021/04/06 12:55:03;;;;;;;3.30;0.80;;;12.40;58.00;;;;;;5069915;28;20039;-76
2021/04/06 12:57:29;;;;;;;3.08;1.02;;;11.90;58.50;;;;;;5071421;28;20029;-76
2021/04/06 12:59:56;;;;;;;0.90;0.90;;;11.80;59.00;;;;;;5073506;28;20350;-75
2021/04/06 13:02:22;;;;;;;3.67;1.02;;;11.80;59.20;;;;;;5074189;28;20047;-75